Terminal Aerodrome Forecast
Issued by NWS

Home | Current Version | Previous Version | Text Only | Print | Product List | Glossary On
Versions: 1 2 3 4 5 6 7 8 9 10 11 12 13 14 15 16
000
FTUS46 KMFR 201746
TAFOTH
TAF
KOTH 201746Z 2018/2118 15012KT P6SM -SHRASN OVC028
     FM202300 15008KT 6SM -RA SCT028 OVC035
     FM210900 32009KT P6SM VCSH BKN025 OVC040=

USA.gov is the U.S. government's official web portal to all federal, state and local government web resources and services.